Time;durP1;ratioP1;P1;durP2;ratioP2;P2;SDS_P1;SDS_P2;PMS_P1;PMS_P2;Temp;Humidity;BMP_temperature;BMP_pressure;BME280_temperature;BME280_humidity;BME280_pressure;Samples;Min_cycle;Max_cycle;Signal;HPM_P1;HPM_P2
2023/12/15 00:00:00;;;;;;;0.40;0.40;;;;;;;7.88;91.31;94659.63;4953948;28;20711;-68
2023/12/15 00:02:25;;;;;;;0.40;0.40;;;;;;;7.76;91.94;94643.72;4953815;28;20273;-68
2023/12/15 00:04:51;;;;;;;0.40;0.40;;;;;;;7.87;92.02;94653.59;4953886;28;20796;-68
2023/12/15 00:07:16;;;;;;;0.30;0.30;;;;;;;7.92;92.46;94653.00;4953975;29;20186;-69
2023/12/15 00:09:42;;;;;;;0.40;0.40;;;;;;;8.01;92.23;94653.63;4954196;29;20565;-68
2023/12/15 00:12:07;;;;;;;0.30;0.30;;;;;;;7.92;91.68;94650.38;4953920;29;20265;-68
2023/12/15 00:14:33;;;;;;;0.30;0.30;;;;;;;7.89;91.97;94640.28;4952666;29;20873;-68
2023/12/15 00:16:58;;;;;;;0.40;0.40;;;;;;;8.02;92.35;94655.25;4953641;28;20218;-68
2023/12/15 00:19:24;;;;;;;0.40;0.40;;;;;;;8.06;92.15;94659.06;4953522;29;20345;-69
2023/12/15 00:21:49;;;;;;;0.33;0.33;;;;;;;8.06;92.22;94662.50;4953370;29;20187;-68
2023/12/15 00:24:15;;;;;;;0.40;0.40;;;;;;;8.08;91.37;94663.09;4953478;29;20265;-68
2023/12/15 00:26:40;;;;;;;0.30;0.30;;;;;;;8.14;91.81;94679.84;4953404;28;20182;-68
2023/12/15 00:29:06;;;;;;;0.40;0.40;;;;;;;8.11;90.91;94673.19;4953410;29;20190;-68
2023/12/15 00:31:31;;;;;;;0.40;0.40;;;;;;;7.95;90.43;94670.97;4953421;29;20688;-68
2023/12/15 00:33:57;;;;;;;0.40;0.40;;;;;;;8.01;90.83;94682.44;4953321;28;20679;-68
2023/12/15 00:36:22;;;;;;;0.40;0.40;;;;;;;8.03;91.03;94677.81;4953330;29;20285;-68
2023/12/15 00:38:47;;;;;;;0.40;0.40;;;;;;;8.05;90.92;94676.59;4953382;29;20269;-68
2023/12/15 00:41:13;;;;;;;6.43;5.93;;;;;;;8.08;90.93;94684.06;4953291;29;20174;-68
2023/12/15 00:43:38;;;;;;;0.47;0.47;;;;;;;8.19;90.93;94682.69;4952562;28;20663;-68
2023/12/15 00:46:04;;;;;;;0.80;0.80;;;;;;;8.23;90.56;94692.56;4953016;29;20186;-68
2023/12/15 00:48:29;;;;;;;0.47;0.47;;;;;;;8.26;90.83;94699.22;4953315;28;20181;-68
2023/12/15 00:50:55;;;;;;;0.50;0.50;;;;;;;8.28;90.92;94707.72;4952920;29;20174;-69
2023/12/15 00:53:20;;;;;;;0.50;0.50;;;;;;;8.25;91.11;94689.75;4952761;29;20174;-69
2023/12/15 00:55:46;;;;;;;2.10;2.00;;;;;;;8.35;91.00;94705.94;4952806;28;20660;-69
2023/12/15 00:58:13;;;;;;;2.50;2.33;;;;;;;8.20;90.77;94685.13;4952749;28;20175;-69
2023/12/15 01:00:39;;;;;;;3.60;3.27;;;;;;;8.33;90.71;94707.94;4952603;29;20783;-69
2023/12/15 01:03:05;;;;;;;2.07;1.97;;;;;;;8.32;90.94;94717.63;4952817;28;20257;-69
2023/12/15 01:05:30;;;;;;;3.77;3.47;;;;;;;8.23;90.96;94715.34;4952532;29;20181;-69
2023/12/15 01:07:55;;;;;;;0.70;0.70;;;;;;;8.26;90.80;94717.59;4952802;28;20179;-69
2023/12/15 01:10:21;;;;;;;0.80;0.80;;;;;;;8.23;91.21;94717.97;4952621;28;20206;-68
2023/12/15 01:12:46;;;;;;;1.33;1.33;;;;;;;8.15;91.24;94703.25;4952388;29;20185;-68
2023/12/15 01:15:12;;;;;;;1.63;1.60;;;;;;;8.25;91.21;94711.53;4952487;29;20182;-68
2023/12/15 01:17:37;;;;;;;0.50;0.50;;;;;;;8.13;91.71;94694.75;4951048;28;20664;-68
2023/12/15 01:20:03;;;;;;;0.50;0.50;;;;;;;8.26;91.59;94709.72;4952365;28;20202;-68
2023/12/15 01:22:28;;;;;;;0.40;0.40;;;;;;;8.32;91.42;94717.63;4952045;28;20187;-69
2023/12/15 01:24:54;;;;;;;2.67;2.57;;;;;;;8.35;91.49;94711.16;4951413;28;20182;-68
2023/12/15 01:27:19;;;;;;;0.83;0.83;;;;;;;8.36;91.30;94725.09;4952381;29;20331;-68
2023/12/15 01:29:45;;;;;;;1.00;1.00;;;;;;;8.34;90.52;94733.16;4952398;28;20182;-68
2023/12/15 01:32:10;;;;;;;1.30;1.30;;;;;;;8.34;90.80;94738.41;4952265;28;20265;-69
2023/12/15 01:34:36;;;;;;;1.33;1.33;;;;;;;8.34;90.91;94730.53;4952137;28;20189;-69
2023/12/15 01:37:01;;;;;;;1.23;1.23;;;;;;;8.36;90.93;94728.53;4951039;29;20175;-69
2023/12/15 01:39:28;;;;;;;0.30;0.30;;;;;;;8.38;90.65;94731.75;4952198;29;20751;-69
2023/12/15 01:41:53;;;;;;;3.80;3.50;;;;;;;8.35;91.22;94731.34;4952090;28;20229;-69
2023/12/15 01:44:18;;;;;;;2.90;2.63;;;;;;;8.37;91.19;94737.19;4952113;29;20186;-69
2023/12/15 01:46:44;;;;;;;0.30;0.30;;;;;;;8.40;91.23;94739.41;4952224;28;20186;-69
2023/12/15 01:49:09;;;;;;;1.00;1.00;;;;;;;8.38;91.29;94734.38;4952203;28;20198;-69
2023/12/15 01:51:35;;;;;;;0.97;0.97;;;;;;;8.40;91.27;94748.09;4951876;28;20257;-69
2023/12/15 01:54:00;;;;;;;0.40;0.40;;;;;;;8.26;91.35;94726.25;4951950;29;20209;-69
2023/12/15 01:56:26;;;;;;;2.10;2.00;;;;;;;8.35;91.14;94736.59;4951158;28;20186;-69
2023/12/15 01:58:51;;;;;;;0.30;0.30;;;;;;;8.35;90.77;94741.84;4952260;29;20182;-69
2023/12/15 02:01:17;;;;;;;0.40;0.40;;;;;;;8.32;90.99;94737.78;4951952;28;20185;-68
2023/12/15 02:03:42;;;;;;;0.97;0.97;;;;;;;8.28;91.34;94733.94;4951767;29;20174;-68
2023/12/15 02:06:08;;;;;;;0.30;0.30;;;;;;;8.22;91.45;94734.69;4951895;29;20175;-68
2023/12/15 02:08:33;;;;;;;0.40;0.40;;;;;;;8.22;92.11;94742.56;4952127;28;20205;-69
2023/12/15 02:10:59;;;;;;;0.40;0.40;;;;;;;8.20;92.15;94744.59;4951884;29;20194;-69
2023/12/15 02:13:25;;;;;;;0.43;0.43;;;;;;;8.06;92.07;94716.72;4951875;28;20261;-69
2023/12/15 02:15:50;;;;;;;0.40;0.40;;;;;;;8.18;91.87;94752.66;4951814;29;20561;-69
2023/12/15 02:18:16;;;;;;;0.50;0.50;;;;;;;8.19;92.19;94748.22;4951700;28;20625;-69
2023/12/15 02:20:41;;;;;;;0.40;0.40;;;;;;;8.16;92.02;94754.66;4951571;29;20198;-69
2023/12/15 02:23:07;;;;;;;0.40;0.40;;;;;;;8.09;92.16;94755.66;4951712;29;20644;-69
2023/12/15 02:25:32;;;;;;;0.40;0.40;;;;;;;8.09;92.56;94759.09;4951590;28;20183;-69
2023/12/15 02:27:57;;;;;;;0.40;0.40;;;;;;;8.08;92.93;94749.59;4951673;28;20241;-69
2023/12/15 02:30:23;;;;;;;0.30;0.30;;;;;;;7.94;93.11;94755.84;4951695;29;20181;-69
2023/12/15 02:32:48;;;;;;;0.30;0.30;;;;;;;7.96;93.30;94762.47;4951765;29;20246;-68
2023/12/15 02:35:14;;;;;;;0.40;0.40;;;;;;;7.93;93.21;94769.94;4951696;28;20236;-68
2023/12/15 02:37:40;;;;;;;0.50;0.50;;;;;;;8.01;93.51;94775.00;4951413;28;20178;-69
2023/12/15 02:40:06;;;;;;;0.50;0.50;;;;;;;8.01;93.41;94771.56;4951643;28;20640;-69
2023/12/15 02:42:32;;;;;;;0.80;0.80;;;;;;;8.04;93.55;94771.19;4951651;28;20687;-69
2023/12/15 02:45:00;;;;;;;0.40;0.40;;;;;;;8.01;93.53;94769.75;4951480;28;20178;-69
2023/12/15 02:47:26;;;;;;;1.17;1.17;;;;;;;8.10;92.98;94780.88;4951486;28;20179;-69
2023/12/15 02:49:54;;;;;;;0.50;0.50;;;;;;;8.13;92.83;94783.13;4951582;28;20205;-69
2023/12/15 02:52:20;;;;;;;0.40;0.40;;;;;;;7.99;92.92;94766.53;4951654;28;20696;-69
2023/12/15 02:54:45;;;;;;;0.50;0.50;;;;;;;8.14;92.79;94784.69;4951319;28;20170;-69
2023/12/15 02:57:11;;;;;;;0.40;0.40;;;;;;;8.09;92.80;94780.06;4951523;29;20183;-69
2023/12/15 02:59:36;;;;;;;0.47;0.47;;;;;;;8.16;92.81;94790.56;4960401;28;20259;-69
2023/12/15 03:02:02;;;;;;;0.43;0.43;;;;;;;8.13;93.04;94796.22;4969347;28;20173;-69
2023/12/15 03:04:27;;;;;;;0.53;0.53;;;;;;;8.00;92.43;94773.38;4970628;28;20535;-69
2023/12/15 03:06:54;;;;;;;0.43;0.43;;;;;;;8.14;92.76;94795.19;4970907;28;20552;-69
2023/12/15 03:09:19;;;;;;;0.43;0.43;;;;;;;8.09;92.81;94794.97;4974410;28;20181;-69
2023/12/15 03:11:45;;;;;;;0.40;0.40;;;;;;;7.97;93.43;94794.72;4974107;28;20177;-70
2023/12/15 03:14:10;;;;;;;0.47;0.47;;;;;;;7.97;93.78;94795.53;4974101;28;20268;-69
2023/12/15 03:16:36;;;;;;;0.40;0.40;;;;;;;8.00;93.18;94799.59;4973804;28;20225;-69
2023/12/15 03:19:01;;;;;;;0.50;0.50;;;;;;;8.03;93.48;94807.06;4974004;28;20181;-69
2023/12/15 03:21:27;;;;;;;0.50;0.50;;;;;;;8.08;93.33;94812.53;4974098;28;20205;-69
2023/12/15 03:23:52;;;;;;;0.67;0.67;;;;;;;8.16;92.60;94814.16;4973794;28;20599;-69
2023/12/15 03:26:18;;;;;;;0.60;0.60;;;;;;;8.11;92.58;94808.72;4973810;28;20181;-69
2023/12/15 03:28:43;;;;;;;0.40;0.40;;;;;;;8.10;92.74;94809.72;4973845;28;20675;-69
2023/12/15 03:31:09;;;;;;;0.40;0.40;;;;;;;8.03;92.84;94809.69;4973672;28;20181;-69
2023/12/15 03:33:35;;;;;;;0.50;0.50;;;;;;;8.00;92.83;94810.06;4972470;28;20213;-69
2023/12/15 03:36:04;;;;;;;0.60;0.60;;;;;;;8.09;92.67;94815.97;4973712;28;20173;-69
2023/12/15 03:38:30;;;;;;;3.57;2.20;;;;;;;7.90;92.52;94789.47;4973743;28;20248;-69
2023/12/15 03:40:56;;;;;;;0.60;0.60;;;;;;;8.02;92.72;94815.13;4973482;28;20205;-69
2023/12/15 03:43:21;;;;;;;1.00;1.00;;;;;;;8.08;92.74;94820.38;4972174;28;20672;-69
2023/12/15 03:45:47;;;;;;;0.50;0.50;;;;;;;8.12;92.19;94826.88;4973447;28;20174;-69
2023/12/15 03:48:12;;;;;;;0.50;0.50;;;;;;;8.16;92.31;94819.41;4973173;28;20174;-69
2023/12/15 03:50:38;;;;;;;0.80;0.80;;;;;;;8.04;92.01;94826.22;4973368;28;20676;-69
2023/12/15 03:53:03;;;;;;;2.30;2.07;;;;;;;7.92;92.46;94802.38;4973283;28;20169;-69
2023/12/15 03:55:29;;;;;;;0.80;0.80;;;;;;;8.04;91.72;94824.44;4971838;28;20185;-69
2023/12/15 03:57:54;;;;;;;0.40;0.40;;;;;;;8.09;92.04;94826.44;4973289;28;20177;-69
2023/12/15 04:00:20;;;;;;;0.40;0.40;;;;;;;7.99;92.33;94834.66;4972798;28;20202;-69
2023/12/15 04:02:47;;;;;;;0.50;0.50;;;;;;;8.01;92.29;94832.66;4972534;28;20569;-69
2023/12/15 04:05:12;;;;;;;0.40;0.40;;;;;;;8.08;92.01;94828.25;4972925;28;20244;-69
2023/12/15 04:07:38;;;;;;;1.40;1.40;;;;;;;8.03;91.84;94840.34;4972821;28;20174;-69
2023/12/15 04:10:04;;;;;;;0.97;0.97;;;;;;;8.05;91.87;94833.06;4972645;28;20260;-69
2023/12/15 04:12:29;;;;;;;0.40;0.40;;;;;;;8.03;91.91;94835.09;4972549;28;20652;-69
2023/12/15 04:14:55;;;;;;;1.53;1.23;;;;;;;7.98;92.38;94843.53;4972843;28;20247;-69
2023/12/15 04:17:20;;;;;;;0.60;0.60;;;;;;;7.99;92.17;94839.09;4972718;28;20280;-69
2023/12/15 04:19:46;;;;;;;1.70;1.60;;;;;;;7.94;92.07;94830.03;4971693;28;20225;-69
2023/12/15 04:22:11;;;;;;;0.30;0.30;;;;;;;7.74;92.86;94818.63;4971451;28;20870;-69
2023/12/15 04:24:37;;;;;;;0.30;0.30;;;;;;;7.91;92.67;94840.06;4972571;28;20192;-69
2023/12/15 04:27:02;;;;;;;0.30;0.30;;;;;;;7.95;92.81;94847.38;4972624;28;20178;-69
2023/12/15 04:29:28;;;;;;;1.17;1.10;;;;;;;7.83;92.43;94848.91;4972609;28;20237;-69
2023/12/15 04:31:53;;;;;;;0.47;0.47;;;;;;;7.87;92.90;94849.34;4972637;28;20629;-68
2023/12/15 04:34:18;;;;;;;0.87;0.87;;;;;;;7.90;93.28;94843.69;4972577;28;20209;-69
2023/12/15 04:36:44;;;;;;;0.70;0.70;;;;;;;8.00;92.98;94852.00;4972579;28;20182;-69
2023/12/15 04:39:09;;;;;;;0.40;0.40;;;;;;;8.00;92.56;94857.25;4972375;28;20616;-69
2023/12/15 04:41:35;;;;;;;0.60;0.60;;;;;;;8.07;92.28;94849.41;4972615;28;20961;-68
2023/12/15 04:44:00;;;;;;;0.30;0.30;;;;;;;8.07;92.11;94855.47;4972345;28;20174;-68
2023/12/15 04:46:27;;;;;;;0.47;0.47;;;;;;;8.12;91.95;94878.50;4972437;28;20186;-68
2023/12/15 04:48:54;;;;;;;0.60;0.60;;;;;;;8.08;91.82;94877.25;4972403;28;20244;-68
2023/12/15 04:51:20;;;;;;;1.03;1.03;;;;;;;8.03;91.95;94882.28;4972192;28;20208;-69
2023/12/15 04:53:47;;;;;;;0.40;0.40;;;;;;;8.01;91.91;94877.22;4972331;28;20631;-70
2023/12/15 04:56:13;;;;;;;0.40;0.40;;;;;;;8.02;92.20;94883.28;4972378;28;20174;-70
2023/12/15 04:58:38;;;;;;;0.50;0.50;;;;;;;8.09;91.75;94898.03;4972533;28;20252;-70
2023/12/15 05:01:04;;;;;;;3.20;1.63;;;;;;;8.08;91.56;94888.53;4971676;28;20208;-70
2023/12/15 05:03:31;;;;;;;3.27;2.97;;;;;;;8.07;91.86;94884.31;4972174;28;20177;-68
2023/12/15 05:05:56;;;;;;;0.40;0.40;;;;;;;8.07;91.99;94888.75;4965292;28;20671;-70
2023/12/15 05:08:22;;;;;;;0.50;0.50;;;;;;;8.13;92.00;94890.59;4952710;28;20185;-70
2023/12/15 05:10:47;;;;;;;1.03;1.03;;;;;;;8.07;91.11;94892.16;4952535;28;20257;-70
2023/12/15 05:13:13;;;;;;;0.40;0.40;;;;;;;7.94;91.00;94876.38;4952784;29;20185;-71
2023/12/15 05:15:38;;;;;;;0.30;0.30;;;;;;;8.12;90.91;94892.41;4952624;28;20316;-71
2023/12/15 05:18:04;;;;;;;0.30;0.30;;;;;;;8.21;91.71;94895.69;4952717;28;20182;-71
2023/12/15 05:20:30;;;;;;;0.30;0.30;;;;;;;8.26;91.05;94901.13;4950317;28;20663;-70
2023/12/15 05:22:56;;;;;;;0.40;0.40;;;;;;;8.32;90.12;94908.25;4952454;28;20213;-70
2023/12/15 05:25:21;;;;;;;0.30;0.30;;;;;;;8.31;90.19;94901.38;4952932;29;20604;-70
2023/12/15 05:27:46;;;;;;;0.40;0.40;;;;;;;8.36;89.44;94909.50;4946125;28;20297;-70
2023/12/15 05:30:12;;;;;;;0.40;0.40;;;;;;;8.32;89.12;94903.00;4952342;28;20649;-71
2023/12/15 05:32:38;;;;;;;0.40;0.40;;;;;;;8.39;89.17;94924.81;4955432;28;20217;-69
2023/12/15 05:35:04;;;;;;;0.40;0.40;;;;;;;8.43;89.32;94918.19;4952369;28;20193;-69
2023/12/15 05:37:30;;;;;;;0.40;0.40;;;;;;;8.42;88.85;94932.31;4952556;28;20179;-69
2023/12/15 05:39:57;;;;;;;0.53;0.53;;;;;;;8.34;88.87;94921.97;4952338;28;20586;-69
2023/12/15 05:42:23;;;;;;;0.40;0.40;;;;;;;8.37;88.79;94937.34;4952174;28;20174;-69
2023/12/15 05:44:48;;;;;;;0.77;0.77;;;;;;;8.24;88.83;94924.13;4952249;28;20198;-71
2023/12/15 05:47:13;;;;;;;0.30;0.30;;;;;;;8.38;88.57;94938.97;4952254;28;20174;-69
2023/12/15 05:49:40;;;;;;;0.40;0.40;;;;;;;8.43;88.77;94943.59;4952085;29;20695;-69
2023/12/15 05:52:08;;;;;;;0.40;0.40;;;;;;;8.42;88.29;94941.97;4952024;28;20559;-69
2023/12/15 05:54:33;;;;;;;0.87;0.87;;;;;;;8.42;88.36;94953.28;4952095;28;20181;-69
2023/12/15 05:56:59;;;;;;;0.50;0.50;;;;;;;8.39;88.45;94945.78;4952163;28;20544;-69
2023/12/15 05:59:24;;;;;;;0.40;0.40;;;;;;;8.39;88.38;94951.03;4952194;29;20285;-69
2023/12/15 06:01:49;;;;;;;0.70;0.70;;;;;;;8.38;88.53;94952.06;4952148;29;20174;-69
2023/12/15 06:04:15;;;;;;;0.40;0.40;;;;;;;8.37;88.15;94958.31;4951931;28;20178;-69
2023/12/15 06:06:40;;;;;;;0.50;0.50;;;;;;;8.37;88.12;94963.56;4952135;29;20175;-70
2023/12/15 06:09:05;;;;;;;1.00;1.00;;;;;;;8.24;87.75;94953.78;4951134;28;20883;-70
2023/12/15 06:11:31;;;;;;;0.40;0.40;;;;;;;8.22;87.87;94960.19;4951901;29;20233;-70
2023/12/15 06:13:56;;;;;;;0.43;0.43;;;;;;;8.24;87.99;94955.59;4951779;29;20176;-69
2023/12/15 06:16:22;;;;;;;0.93;0.93;;;;;;;8.22;88.08;94960.19;4951710;29;20640;-69
2023/12/15 06:18:48;;;;;;;0.70;0.70;;;;;;;8.27;87.92;94968.31;4951918;28;20621;-69
2023/12/15 06:21:25;;;;;;;0.43;0.43;;;;;;;8.31;88.00;94970.38;4951640;28;20206;-69
2023/12/15 06:23:50;;;;;;;2.27;2.10;;;;;;;8.22;87.96;94957.56;4951788;28;20185;-69
2023/12/15 06:26:20;;;;;;;0.93;0.93;;;;;;;8.32;88.25;94977.25;4951774;28;20178;-69
2023/12/15 06:28:46;;;;;;;11.43;5.40;;;;;;;8.31;88.50;94977.44;4951762;28;20259;-69
2023/12/15 06:31:12;;;;;;;1.37;1.37;;;;;;;8.25;88.51;94975.56;4951570;28;20179;-69
2023/12/15 06:33:37;;;;;;;0.40;0.40;;;;;;;8.26;89.13;94985.06;4949594;28;20182;-69
2023/12/15 06:36:04;;;;;;;0.53;0.53;;;;;;;8.28;89.12;94983.06;4951887;29;20186;-69
2023/12/15 06:38:29;;;;;;;3.90;3.70;;;;;;;8.27;89.41;94987.47;4951957;28;20220;-70
2023/12/15 06:40:55;;;;;;;0.40;0.40;;;;;;;8.27;89.37;94984.06;4951802;29;20290;-69
2023/12/15 06:43:20;;;;;;;0.50;0.50;;;;;;;8.28;89.85;94989.09;4957381;28;20197;-70
2023/12/15 06:45:46;;;;;;;0.40;0.40;;;;;;;8.24;89.96;94998.34;4955318;29;20254;-69
2023/12/15 06:48:11;;;;;;;0.53;0.53;;;;;;;8.26;90.28;94996.34;4955013;28;20575;-70
2023/12/15 06:50:36;;;;;;;1.43;1.43;;;;;;;8.25;90.42;94992.09;4954931;29;20251;-69
2023/12/15 06:53:02;;;;;;;0.30;0.30;;;;;;;8.26;90.21;95008.66;4955114;28;20617;-70
2023/12/15 06:55:27;;;;;;;0.47;0.47;;;;;;;8.26;90.59;95006.84;4955120;28;20351;-70
2023/12/15 06:57:52;;;;;;;1.40;1.33;;;;;;;8.25;90.45;95007.03;4954968;28;20640;-70
2023/12/15 07:00:18;;;;;;;1.93;1.83;;;;;;;8.24;90.39;95019.31;4954249;29;20238;-69
2023/12/15 07:02:44;;;;;;;0.40;0.40;;;;;;;8.20;90.53;95025.97;4960446;28;20182;-69
2023/12/15 07:05:10;;;;;;;0.40;0.40;;;;;;;8.17;90.77;95022.91;4973536;28;20178;-69
2023/12/15 07:07:36;;;;;;;0.90;0.90;;;;;;;8.20;91.48;95033.03;4973968;28;20188;-69
2023/12/15 07:10:03;;;;;;;1.47;1.47;;;;;;;8.12;91.21;95022.69;4974042;28;20177;-69
2023/12/15 07:12:28;;;;;;;0.30;0.30;;;;;;;8.22;91.25;95044.91;4974157;28;20165;-69
2023/12/15 07:14:54;;;;;;;0.60;0.60;;;;;;;8.19;91.41;95039.28;4975377;28;20177;-70
2023/12/15 07:17:19;;;;;;;1.53;1.43;;;;;;;8.07;91.45;95020.63;4974376;28;20229;-69
2023/12/15 07:19:45;;;;;;;0.30;0.30;;;;;;;8.19;91.48;95041.88;4973595;28;20200;-69
2023/12/15 07:22:10;;;;;;;1.40;1.40;;;;;;;8.16;91.26;95037.00;4973725;28;20272;-69
2023/12/15 07:24:35;;;;;;;1.63;1.60;;;;;;;8.13;91.48;95040.81;4973679;28;20178;-69
2023/12/15 07:27:01;;;;;;;0.67;0.67;;;;;;;8.08;91.58;95042.41;4973795;28;20213;-70
2023/12/15 07:29:26;;;;;;;0.30;0.30;;;;;;;8.10;91.93;95040.41;4973602;28;20659;-69
2023/12/15 07:31:51;;;;;;;0.50;0.50;;;;;;;8.18;92.80;95048.94;4973049;28;20174;-69
2023/12/15 07:34:18;;;;;;;0.30;0.30;;;;;;;8.17;92.02;95047.31;4972187;28;20190;-69
2023/12/15 07:36:43;;;;;;;0.40;0.40;;;;;;;8.01;91.69;95052.84;4973333;28;20229;-69
2023/12/15 07:39:10;;;;;;;1.87;1.83;;;;;;;7.85;92.21;95032.97;4973807;28;20174;-70
2023/12/15 07:41:38;;;;;;;0.35;0.35;;;;;;;7.90;92.63;95041.06;4972658;28;20413;-69
2023/12/15 07:44:04;;;;;;;0.80;0.80;;;;;;;8.03;92.14;95060.53;4973245;28;20186;-68
2023/12/15 07:46:29;;;;;;;33.63;16.87;;;;;;;8.03;92.62;95066.59;4973352;28;20867;-70
2023/12/15 07:48:55;;;;;;;0.40;0.40;;;;;;;8.07;92.12;95072.25;4957352;28;20604;-70
2023/12/15 07:51:21;;;;;;;0.43;0.43;;;;;;;8.08;92.60;95063.38;4953936;29;20169;-70
2023/12/15 07:53:47;;;;;;;1.60;1.50;;;;;;;8.01;92.31;95075.63;4953661;28;20194;-70
2023/12/15 07:56:39;;;;;;;1.40;1.17;;;;;;;8.04;92.95;95075.25;4953665;28;20309;-70
2023/12/15 07:59:04;;;;;;;0.67;0.67;;;;;;;8.01;92.85;95083.50;4952184;28;20687;-70
2023/12/15 08:01:29;;;;;;;0.90;0.90;;;;;;;8.02;92.87;95091.19;4953075;29;20210;-69
2023/12/15 08:03:55;;;;;;;0.40;0.40;;;;;;;8.03;92.59;95092.00;4954310;28;20210;-69
2023/12/15 08:06:20;;;;;;;0.57;0.57;;;;;;;8.01;92.40;95097.41;4954574;28;20237;-69
2023/12/15 08:08:47;;;;;;;0.70;0.70;;;;;;;7.97;92.51;95090.91;4953584;28;20182;-69
2023/12/15 08:11:13;;;;;;;1.97;1.87;;;;;;;8.04;92.29;95110.16;4953320;28;20163;-69
2023/12/15 08:13:39;;;;;;;0.80;0.80;;;;;;;8.06;92.33;95115.19;4953351;28;20222;-69
2023/12/15 08:16:06;;;;;;;0.57;0.57;;;;;;;7.95;91.95;95122.59;4953225;28;20712;-70
2023/12/15 08:18:31;;;;;;;0.40;0.40;;;;;;;7.78;92.66;95115.97;4951872;28;20248;-69
2023/12/15 08:20:57;;;;;;;0.63;0.63;;;;;;;7.86;93.35;95122.88;4953056;28;20210;-69
2023/12/15 08:23:23;;;;;;;0.50;0.50;;;;;;;7.80;93.13;95119.19;4953202;28;20204;-69
2023/12/15 08:25:48;;;;;;;0.73;0.73;;;;;;;7.83;93.20;95108.34;4953160;28;20664;-70
2023/12/15 08:28:14;;;;;;;0.60;0.60;;;;;;;7.93;93.46;95124.56;4953052;29;20175;-70
2023/12/15 08:30:39;;;;;;;0.50;0.50;;;;;;;7.85;93.46;95116.84;4952428;28;20169;-70
2023/12/15 08:33:05;;;;;;;1.23;1.23;;;;;;;7.90;93.17;95118.88;4953031;28;20163;-70
2023/12/15 08:35:31;;;;;;;0.50;0.50;;;;;;;7.87;93.32;95112.19;4952820;28;20209;-70
2023/12/15 08:37:57;;;;;;;0.83;0.83;;;;;;;8.04;93.17;95130.31;4952586;28;20181;-69
2023/12/15 08:40:23;;;;;;;0.30;0.30;;;;;;;7.98;92.91;95116.13;4952856;28;20202;-70
2023/12/15 08:42:49;;;;;;;0.30;0.30;;;;;;;8.15;93.18;95127.16;4955354;28;20187;-70
2023/12/15 08:45:15;;;;;;;0.43;0.43;;;;;;;8.15;93.07;95121.91;4972283;28;20174;-70
2023/12/15 08:47:40;;;;;;;1.00;1.00;;;;;;;8.26;93.03;95126.66;4971831;28;20185;-69
2023/12/15 08:50:06;;;;;;;1.00;1.00;;;;;;;8.30;92.68;95131.31;4972168;28;20209;-70
2023/12/15 08:52:31;;;;;;;0.30;0.30;;;;;;;8.29;92.39;95127.09;4971998;28;20627;-69
2023/12/15 08:54:56;;;;;;;0.97;0.97;;;;;;;8.33;92.33;95130.16;4970382;28;20209;-70
2023/12/15 08:57:22;;;;;;;0.50;0.50;;;;;;;8.25;91.88;95138.16;4948935;29;20535;-70
2023/12/15 08:59:47;;;;;;;0.67;0.67;;;;;;;8.25;91.71;95135.53;4952385;28;20210;-70
2023/12/15 09:02:13;;;;;;;0.30;0.30;;;;;;;8.29;91.61;95144.66;4952386;29;20188;-70
2023/12/15 09:04:38;;;;;;;0.40;0.40;;;;;;;8.30;91.57;95146.28;4952159;28;20253;-70
2023/12/15 09:07:07;;;;;;;1.00;1.00;;;;;;;8.26;91.42;95137.97;4952532;28;20245;-70
2023/12/15 09:09:34;;;;;;;6.23;5.77;;;;;;;8.10;91.81;95125.13;4962247;28;20190;-70
2023/12/15 09:11:59;;;;;;;0.63;0.63;;;;;;;8.10;91.69;95130.38;4952474;28;20182;-69
2023/12/15 09:14:25;;;;;;;0.40;0.40;;;;;;;8.03;91.53;95123.44;4952565;28;20179;-69
2023/12/15 09:16:50;;;;;;;0.40;0.40;;;;;;;8.08;91.98;95127.13;4952188;29;20226;-69
2023/12/15 09:19:16;;;;;;;0.37;0.37;;;;;;;8.12;92.61;95123.13;4952254;28;20193;-70
2023/12/15 09:21:41;;;;;;;1.13;1.00;;;;;;;8.18;92.58;95126.78;4952154;28;20178;-70
2023/12/15 09:24:07;;;;;;;0.50;0.50;;;;;;;8.06;91.98;95125.66;4951935;29;20192;-68
2023/12/15 09:26:33;;;;;;;0.70;0.70;;;;;;;7.96;92.21;95123.38;4952224;29;20205;-70
2023/12/15 09:28:58;;;;;;;0.50;0.50;;;;;;;7.94;92.55;95107.84;4952165;28;20206;-69
2023/12/15 09:31:24;;;;;;;1.07;1.07;;;;;;;8.14;92.64;95125.53;4952208;28;20282;-70
2023/12/15 09:33:49;;;;;;;0.70;0.70;;;;;;;8.24;92.12;95128.66;4951838;28;20183;-69
2023/12/15 09:36:14;;;;;;;0.40;0.40;;;;;;;8.18;91.50;95127.59;4952222;28;20178;-69
2023/12/15 09:38:40;;;;;;;0.40;0.40;;;;;;;8.11;91.64;95115.44;4950785;28;20261;-70
2023/12/15 09:41:06;;;;;;;2.20;2.00;;;;;;;8.22;91.21;95125.41;4951242;28;20206;-68
2023/12/15 09:43:31;;;;;;;0.40;0.40;;;;;;;8.18;91.34;95122.38;4951205;28;20209;-70
2023/12/15 09:45:58;;;;;;;0.67;0.67;;;;;;;8.23;91.83;95130.47;4951153;28;20178;-70
2023/12/15 09:48:28;;;;;;;0.40;0.40;;;;;;;8.21;91.80;95127.25;4951034;28;20187;-70
2023/12/15 09:50:56;;;;;;;0.40;0.40;;;;;;;8.26;91.91;95121.41;4950516;28;20213;-69
2023/12/15 09:53:22;;;;;;;0.97;0.97;;;;;;;8.30;92.44;95118.22;4952044;28;20190;-70
2023/12/15 09:55:50;;;;;;;3.17;2.73;;;;;;;8.18;91.92;95116.31;4948217;28;20183;-70
2023/12/15 09:58:16;;;;;;;0.60;0.60;;;;;;;8.25;91.96;95125.84;4949250;28;20331;-68
2023/12/15 10:00:42;;;;;;;0.77;0.73;;;;;;;8.28;92.27;95135.16;4951179;28;20190;-69
2023/12/15 10:03:07;;;;;;;0.40;0.40;;;;;;;8.37;92.15;95136.66;4958847;28;20177;-70
2023/12/15 10:05:34;;;;;;;0.40;0.40;;;;;;;8.32;92.19;95121.50;4951407;28;20245;-69
2023/12/15 10:08:00;;;;;;;0.50;0.50;;;;;;;8.43;92.40;95132.47;4951474;28;20182;-70
2023/12/15 10:10:26;;;;;;;0.40;0.40;;;;;;;8.40;92.46;95130.22;4951749;28;20226;-70
2023/12/15 10:12:56;;;;;;;4.97;4.57;;;;;;;8.32;92.45;95120.69;4952022;28;20205;-70
2023/12/15 10:15:22;;;;;;;2.80;2.57;;;;;;;8.39;92.00;95137.28;4951425;28;20182;-70
2023/12/15 10:17:49;;;;;;;1.03;1.03;;;;;;;8.40;91.56;95128.41;4953267;28;20240;-69
2023/12/15 10:20:14;;;;;;;0.40;0.40;;;;;;;8.51;91.80;95142.81;4955297;28;20221;-69
2023/12/15 10:22:40;;;;;;;0.40;0.40;;;;;;;8.58;91.78;95141.03;4957844;28;20927;-67
2023/12/15 10:25:16;;;;;;;0.93;0.93;;;;;;;8.59;91.06;95147.91;4955397;29;20260;-68
2023/12/15 10:27:42;;;;;;;0.40;0.40;;;;;;;8.48;91.44;95145.81;4954538;28;20177;-67
2023/12/15 10:30:08;;;;;;;4.17;3.87;;;;;;;8.48;91.25;95123.00;4954545;28;20671;-68
2023/12/15 10:32:33;;;;;;;1.23;1.23;;;;;;;8.65;91.10;95147.97;4953457;28;20202;-68
2023/12/15 10:35:03;;;;;;;0.60;0.60;;;;;;;8.74;90.91;95148.63;4954559;28;20206;-68
2023/12/15 10:37:29;;;;;;;0.60;0.60;;;;;;;8.75;91.27;95149.44;4955015;29;20182;-67
2023/12/15 10:39:56;;;;;;;1.07;1.07;;;;;;;8.67;90.81;95142.53;4955045;28;20554;-68
2023/12/15 10:42:23;;;;;;;0.40;0.40;;;;;;;8.57;91.03;95142.84;4954880;28;20182;-68
2023/12/15 10:44:51;;;;;;;1.63;1.63;;;;;;;8.58;90.75;95144.47;4954959;28;20255;-68
2023/12/15 10:47:18;;;;;;;0.97;0.97;;;;;;;8.60;91.02;95157.41;4953454;29;20581;-69
2023/12/15 10:49:44;;;;;;;0.70;0.70;;;;;;;8.63;91.12;95152.63;4954720;28;20178;-68
2023/12/15 10:52:09;;;;;;;0.80;0.80;;;;;;;8.65;90.86;95147.97;4954783;28;20186;-67
2023/12/15 10:54:37;;;;;;;1.17;1.17;;;;;;;8.76;91.41;95161.56;4956359;28;20236;-67
2023/12/15 10:57:02;;;;;;;0.87;0.87;;;;;;;8.76;90.58;95148.44;4954543;28;20581;-67
2023/12/15 10:59:28;;;;;;;1.80;1.43;;;;;;;8.82;89.67;95169.47;4954782;28;20182;-67
2023/12/15 11:01:54;;;;;;;0.70;0.70;;;;;;;8.62;89.48;95150.16;4954750;28;20171;-68
2023/12/15 11:04:23;;;;;;;0.40;0.40;;;;;;;8.54;90.13;95171.31;4954954;28;20178;-67
2023/12/15 11:06:49;;;;;;;0.70;0.70;;;;;;;8.64;90.95;95174.41;4953789;28;20672;-67
2023/12/15 11:09:30;;;;;;;16.03;4.53;;;;;;;8.66;91.27;95154.03;4954356;28;20187;-67
2023/12/15 11:12:28;;;;;;;0.70;0.70;;;;;;;8.63;88.97;95172.78;4954173;28;20206;-67
2023/12/15 11:15:10;;;;;;;0.30;0.30;;;;;;;8.60;88.87;95173.97;4950424;28;20237;-68
2023/12/15 11:17:43;;;;;;;0.87;0.87;;;;;;;8.68;90.44;95176.47;4953168;28;20225;-68
2023/12/15 11:20:12;;;;;;;15.93;10.93;;;;;;;8.74;90.83;95171.44;4952995;28;20277;-67
2023/12/15 11:23:11;;;;;;;0.40;0.40;;;;;;;8.82;90.60;95172.09;4952922;28;20664;-68
2023/12/15 11:25:51;;;;;;;0.30;0.30;;;;;;;8.82;90.54;95166.84;4951510;28;20265;-68
2023/12/15 11:28:18;;;;;;;0.50;0.50;;;;;;;8.71;90.29;95149.03;4952381;28;20248;-69
2023/12/15 11:30:48;;;;;;;0.60;0.60;;;;;;;8.77;90.33;95158.75;4952816;28;20190;-67
2023/12/15 11:33:32;;;;;;;0.30;0.30;;;;;;;8.88;89.80;95181.03;4952078;28;20190;-67
2023/12/15 11:36:09;;;;;;;0.47;0.47;;;;;;;8.80;89.50;95181.19;4953124;29;20225;-67